createdAt,value
2022-10-25T00:00:41.976Z,15.26
2022-10-25T00:02:04.391Z,15.24
2022-10-25T00:03:06.697Z,15.24
2022-10-25T00:04:12.032Z,15.24
2022-10-25T00:05:14.816Z,15.24
2022-10-25T00:06:17.508Z,15.24
2022-10-25T00:07:18.994Z,15.24
2022-10-25T00:08:21.477Z,15.26
2022-10-25T00:09:23.044Z,15.27
2022-10-25T00:10:25.883Z,15.27
2022-10-25T00:11:29.806Z,15.27
2022-10-25T00:12:32.331Z,15.28
2022-10-25T00:13:34.920Z,15.27
2022-10-25T00:14:37.823Z,15.26
2022-10-25T00:15:40.429Z,15.25
2022-10-25T00:16:41.968Z,15.23
2022-10-25T00:17:45.666Z,15.24
2022-10-25T00:18:47.616Z,15.23
2022-10-25T00:19:50.185Z,15.22
2022-10-25T00:20:52.049Z,15.21
2022-10-25T00:21:54.631Z,15.20
2022-10-25T00:22:56.908Z,15.21
2022-10-25T00:23:59.510Z,15.19
2022-10-25T00:25:01.044Z,15.18
2022-10-25T00:26:05.203Z,15.18
2022-10-25T00:27:06.785Z,15.18
2022-10-25T00:28:09.535Z,15.18
2022-10-25T00:29:11.882Z,15.18
2022-10-25T00:30:16.087Z,15.19
2022-10-25T00:31:17.940Z,15.20
2022-10-25T00:32:20.797Z,15.21
2022-10-25T00:33:22.312Z,15.24
2022-10-25T00:34:24.777Z,15.24
2022-10-25T00:35:26.325Z,15.25
2022-10-25T00:36:28.953Z,15.25
2022-10-25T00:37:30.657Z,15.26
2022-10-25T00:38:33.349Z,15.26
2022-10-25T00:39:35.937Z,15.27
2022-10-25T00:40:38.089Z,15.26
2022-10-25T00:41:41.363Z,15.27
2022-10-25T00:42:42.958Z,15.25
2022-10-25T00:43:47.741Z,15.25
2022-10-25T00:44:53.568Z,15.25
2022-10-25T00:45:57.846Z,15.22
2022-10-25T00:46:59.613Z,15.22
2022-10-25T00:48:05.487Z,15.22
2022-10-25T00:49:12.640Z,15.23
2022-10-25T00:50:21.564Z,15.23
2022-10-25T00:51:28.784Z,15.22
2022-10-25T00:52:35.686Z,15.22
2022-10-25T00:53:38.925Z,15.24
2022-10-25T00:54:46.032Z,15.23
2022-10-25T00:55:53.490Z,15.23
2022-10-25T00:56:59.333Z,15.25
2022-10-25T00:58:07.473Z,15.26
2022-10-25T00:59:12.293Z,15.28
2022-10-25T01:00:15.163Z,15.29
2022-10-25T01:01:19.265Z,15.30
2022-10-25T01:02:23.003Z,15.30
2022-10-25T01:03:26.547Z,15.31
2022-10-25T01:04:32.055Z,15.32
2022-10-25T01:05:35.014Z,15.32
2022-10-25T01:06:39.403Z,15.32
2022-10-25T01:07:41.972Z,15.33
2022-10-25T01:08:45.300Z,15.34
2022-10-25T01:09:48.431Z,15.34
2022-10-25T01:10:50.206Z,15.33
2022-10-25T01:11:52.741Z,15.34
2022-10-25T01:12:54.834Z,15.35
2022-10-25T01:13:58.537Z,15.36
2022-10-25T01:15:01.251Z,15.37
2022-10-25T01:16:11.934Z,15.38
2022-10-25T01:17:22.739Z,15.38
2022-10-25T01:18:37.392Z,15.39
2022-10-25T01:20:05.078Z,15.37
2022-10-25T01:21:31.466Z,15.35
2022-10-25T01:22:38.597Z,15.34
2022-10-25T01:24:09.399Z,15.33
2022-10-25T01:25:34.940Z,15.31
2022-10-25T01:27:10.464Z,15.32
2022-10-25T01:28:21.778Z,15.30
2022-10-25T01:29:45.007Z,15.30
2022-10-25T01:31:06.426Z,15.31
2022-10-25T01:32:14.959Z,15.31
2022-10-25T01:33:23.773Z,15.30
2022-10-25T01:34:29.321Z,15.30
2022-10-25T01:35:35.787Z,15.30
2022-10-25T01:36:45.865Z,15.30
2022-10-25T01:38:06.340Z,15.31
2022-10-25T01:39:13.728Z,15.31
2022-10-25T01:40:24.457Z,15.29
2022-10-25T01:41:33.088Z,15.28
2022-10-25T01:42:42.633Z,15.27
2022-10-25T01:43:55.055Z,15.27
2022-10-25T01:45:07.070Z,15.26
2022-10-25T01:46:16.565Z,15.24
2022-10-25T01:47:21.319Z,15.23
2022-10-25T01:48:28.542Z,15.22
2022-10-25T01:49:37.725Z,15.21
2022-10-25T01:50:43.661Z,15.19
2022-10-25T01:51:46.199Z,15.18
2022-10-25T01:52:47.793Z,15.17
2022-10-25T01:53:52.086Z,15.16
2022-10-25T01:54:53.829Z,15.15
2022-10-25T01:56:01.773Z,15.15
2022-10-25T01:57:24.709Z,15.12
2022-10-25T01:58:38.349Z,15.10
2022-10-25T01:59:55.028Z,15.09
2022-10-25T02:01:09.353Z,15.08
2022-10-25T02:02:20.196Z,15.06
2022-10-25T02:03:32.753Z,15.05
2022-10-25T02:04:47.905Z,15.05
2022-10-25T02:06:02.680Z,15.03
2022-10-25T02:07:07.996Z,15.02
2022-10-25T02:08:18.782Z,15.01
2022-10-25T02:09:28.088Z,15.01
2022-10-25T02:10:37.316Z,15.01
2022-10-25T02:11:39.706Z,15.02
2022-10-25T02:12:52.635Z,15.01
2022-10-25T02:14:04.832Z,15.01
2022-10-25T02:15:13.348Z,15.01
2022-10-25T02:16:21.321Z,15.01
2022-10-25T02:17:28.386Z,15.01
2022-10-25T02:18:35.454Z,15.01
2022-10-25T02:19:40.746Z,15.02
2022-10-25T02:20:47.086Z,15.04
2022-10-25T02:21:50.550Z,15.03
2022-10-25T02:22:55.175Z,15.04
2022-10-25T02:24:01.283Z,15.05
2022-10-25T02:25:04.740Z,15.04
2022-10-25T02:26:08.944Z,15.06
2022-10-25T02:27:12.735Z,15.06
2022-10-25T02:28:17.356Z,15.08
2022-10-25T02:29:22.240Z,15.07
2022-10-25T02:30:23.920Z,15.08
2022-10-25T02:31:28.029Z,15.08
2022-10-25T02:32:31.143Z,15.08
2022-10-25T02:33:33.982Z,15.08
2022-10-25T02:34:35.645Z,15.08
2022-10-25T02:35:38.708Z,15.10
2022-10-25T02:36:40.263Z,15.10
2022-10-25T02:37:42.985Z,15.12
2022-10-25T02:38:45.513Z,15.13
2022-10-25T02:39:49.206Z,15.13
2022-10-25T02:40:51.100Z,15.16
2022-10-25T02:41:53.905Z,15.17
2022-10-25T02:42:55.455Z,15.16
2022-10-25T02:43:57.951Z,15.17
2022-10-25T02:44:59.483Z,15.17
2022-10-25T02:46:06.860Z,15.17
2022-10-25T02:47:08.396Z,15.18
2022-10-25T02:48:12.267Z,15.18
2022-10-25T02:49:13.907Z,15.19
2022-10-25T02:50:16.443Z,15.19
2022-10-25T02:51:18.866Z,15.19
2022-10-25T02:52:21.505Z,15.20
2022-10-25T02:53:23.003Z,15.21
2022-10-25T02:54:25.733Z,15.22
2022-10-25T02:55:27.238Z,15.23
2022-10-25T02:56:30.055Z,15.24
2022-10-25T02:57:33.554Z,15.26
2022-10-25T02:58:38.904Z,15.26
2022-10-25T02:59:40.783Z,15.26
2022-10-25T03:00:43.369Z,15.28
2022-10-25T03:01:44.992Z,15.28
2022-10-25T03:02:47.948Z,15.30
2022-10-25T03:03:51.831Z,15.31
2022-10-25T03:04:54.380Z,15.32
2022-10-25T03:05:57.516Z,15.33
2022-10-25T03:06:59.990Z,15.34
2022-10-25T03:08:01.493Z,15.35
2022-10-25T03:09:04.371Z,15.38
2022-10-25T03:10:07.206Z,15.39
2022-10-25T03:11:10.923Z,15.40
2022-10-25T03:12:13.383Z,15.41
2022-10-25T03:13:15.264Z,15.41
2022-10-25T03:14:17.801Z,15.43
2022-10-25T03:15:19.679Z,15.42
2022-10-25T03:16:22.180Z,15.42
2022-10-25T03:17:23.684Z,15.42
2022-10-25T03:18:26.313Z,15.43
2022-10-25T03:19:29.367Z,15.44
2022-10-25T03:20:32.108Z,15.44
2022-10-25T03:21:36.525Z,15.44
2022-10-25T03:22:41.192Z,15.45
2022-10-25T03:23:42.772Z,15.44
2022-10-25T03:24:45.236Z,15.44
2022-10-25T03:25:48.765Z,15.44
2022-10-25T03:26:53.271Z,15.45
2022-10-25T03:27:54.861Z,15.45
2022-10-25T03:28:57.353Z,15.45
2022-10-25T03:30:00.207Z,15.46
2022-10-25T03:31:02.693Z,15.46
2022-10-25T03:32:05.467Z,15.45
2022-10-25T03:33:07.963Z,15.45
2022-10-25T03:34:09.545Z,15.44
2022-10-25T03:35:13.536Z,15.43
2022-10-25T03:36:16.146Z,15.42
2022-10-25T03:37:17.749Z,15.41
2022-10-25T03:38:20.278Z,15.40
2022-10-25T03:39:21.757Z,15.39
2022-10-25T03:40:24.709Z,15.38
2022-10-25T03:41:26.359Z,15.38
2022-10-25T03:42:29.144Z,15.38
2022-10-25T03:43:30.899Z,15.38
2022-10-25T03:44:33.369Z,15.38
2022-10-25T03:45:34.899Z,15.37
2022-10-25T03:46:37.365Z,15.38
2022-10-25T03:47:39.461Z,15.37
2022-10-25T03:48:41.944Z,15.38
2022-10-25T03:49:48.801Z,15.38
2022-10-25T03:50:53.650Z,15.37
2022-10-25T03:51:57.908Z,15.36
2022-10-25T03:53:03.754Z,15.38
2022-10-25T03:54:05.553Z,15.38
2022-10-25T03:55:08.640Z,15.38
2022-10-25T03:56:10.172Z,15.40
2022-10-25T03:57:12.646Z,15.40
2022-10-25T03:58:14.229Z,15.41
2022-10-25T03:59:16.699Z,15.40
2022-10-25T04:00:18.321Z,15.42
2022-10-25T04:01:20.888Z,15.42
2022-10-25T04:02:22.473Z,15.42
2022-10-25T04:03:25.077Z,15.42
2022-10-25T04:04:26.821Z,15.44
2022-10-25T04:05:29.684Z,15.45
2022-10-25T04:06:33.462Z,15.45
2022-10-25T04:07:34.996Z,15.45
2022-10-25T04:08:38.355Z,15.45
2022-10-25T04:09:39.957Z,15.45
2022-10-25T04:10:44.030Z,15.45
2022-10-25T04:11:45.574Z,15.45
2022-10-25T04:12:48.499Z,15.45
2022-10-25T04:13:50.137Z,15.45
2022-10-25T04:14:52.747Z,15.44
2022-10-25T04:15:55.187Z,15.44
2022-10-25T04:16:56.837Z,15.44
2022-10-25T04:17:59.380Z,15.43
2022-10-25T04:19:01.431Z,15.43
2022-10-25T04:20:04.257Z,15.43
2022-10-25T04:21:05.957Z,15.43
2022-10-25T04:22:11.760Z,15.43
2022-10-25T04:23:23.038Z,15.41
2022-10-25T04:24:25.543Z,15.41
2022-10-25T04:25:28.394Z,15.41
2022-10-25T04:26:30.911Z,15.41
2022-10-25T04:27:32.432Z,15.42
2022-10-25T04:28:34.983Z,15.41
2022-10-25T04:29:36.489Z,15.41
2022-10-25T04:30:39.193Z,15.42
2022-10-25T04:31:42.103Z,15.42
2022-10-25T04:32:44.729Z,15.42
2022-10-25T04:33:49.012Z,15.43
2022-10-25T04:34:51.647Z,15.41
2022-10-25T04:35:55.849Z,15.41
2022-10-25T04:36:58.468Z,15.41
2022-10-25T04:38:01.372Z,15.42
2022-10-25T04:39:03.931Z,15.41
2022-10-25T04:40:06.761Z,15.41
2022-10-25T04:41:10.834Z,15.42
2022-10-25T04:42:12.431Z,15.43
2022-10-25T04:43:15.009Z,15.41
2022-10-25T04:44:16.660Z,15.43
2022-10-25T04:45:19.309Z,15.43
2022-10-25T04:46:21.217Z,15.44
2022-10-25T04:47:23.689Z,15.43
2022-10-25T04:48:25.277Z,15.45
2022-10-25T04:49:27.916Z,15.45
2022-10-25T04:50:29.442Z,15.46
2022-10-25T04:51:31.972Z,15.47
2022-10-25T04:52:33.753Z,15.47
2022-10-25T04:53:37.988Z,15.48
2022-10-25T04:54:39.605Z,15.49
2022-10-25T04:55:42.098Z,15.49
2022-10-25T04:56:43.610Z,15.49
2022-10-25T04:57:46.218Z,15.49
2022-10-25T04:58:47.752Z,15.50
2022-10-25T04:59:50.236Z,15.49
2022-10-25T05:00:52.239Z,15.50
2022-10-25T05:01:54.682Z,15.50
2022-10-25T05:02:56.810Z,15.49
2022-10-25T05:03:59.461Z,15.49
2022-10-25T05:05:01.004Z,15.49
2022-10-25T05:06:11.433Z,15.49
2022-10-25T05:07:13.337Z,15.49
2022-10-25T05:08:15.920Z,15.48
2022-10-25T05:09:18.834Z,15.49
2022-10-25T05:10:21.577Z,15.48
2022-10-25T05:11:24.818Z,15.48
2022-10-25T05:12:27.339Z,15.47
2022-10-25T05:13:31.806Z,15.46
2022-10-25T05:14:36.865Z,15.46
2022-10-25T05:15:39.907Z,15.45
2022-10-25T05:16:42.387Z,15.45
2022-10-25T05:17:43.975Z,15.42
2022-10-25T05:18:46.563Z,15.42
2022-10-25T05:19:48.085Z,15.40
2022-10-25T05:20:54.385Z,15.41
2022-10-25T05:21:58.292Z,15.41
2022-10-25T05:23:00.752Z,15.39
2022-10-25T05:24:02.673Z,15.40
2022-10-25T05:25:08.035Z,15.39
2022-10-25T05:26:11.539Z,15.39
2022-10-25T05:27:14.036Z,15.40
2022-10-25T05:28:16.717Z,15.40
2022-10-25T05:29:19.399Z,15.39
2022-10-25T05:30:21.660Z,15.40
2022-10-25T05:31:25.761Z,15.40
2022-10-25T05:32:27.281Z,15.38
2022-10-25T05:33:29.784Z,15.38
2022-10-25T05:34:31.452Z,15.37
2022-10-25T05:35:33.986Z,15.35
2022-10-25T05:36:36.589Z,15.34
2022-10-25T05:37:38.093Z,15.34
2022-10-25T05:38:41.174Z,15.32
2022-10-25T05:39:43.738Z,15.32
2022-10-25T05:40:53.739Z,15.30
2022-10-25T05:41:56.297Z,15.29
2022-10-25T05:42:57.884Z,15.28
2022-10-25T05:44:00.639Z,15.28
2022-10-25T05:45:02.217Z,15.26
2022-10-25T05:46:06.385Z,15.25
2022-10-25T05:47:08.460Z,15.24
2022-10-25T05:48:10.981Z,15.24
2022-10-25T05:49:13.685Z,15.23
2022-10-25T05:50:15.541Z,15.21
2022-10-25T05:51:36.515Z,15.21
2022-10-25T05:52:43.515Z,15.21
2022-10-25T05:53:46.855Z,15.20
2022-10-25T05:54:49.452Z,15.20
2022-10-25T05:55:51.174Z,15.20
2022-10-25T05:56:55.036Z,15.20
2022-10-25T05:57:56.580Z,15.21
2022-10-25T05:58:59.388Z,15.21
2022-10-25T06:00:01.084Z,15.22
2022-10-25T06:01:11.637Z,15.23
2022-10-25T06:02:14.377Z,15.23
2022-10-25T06:03:16.003Z,15.21
2022-10-25T06:04:18.873Z,15.21
2022-10-25T06:05:21.740Z,15.19
2022-10-25T06:06:24.408Z,15.19
2022-10-25T06:07:26.888Z,15.17
2022-10-25T06:08:28.776Z,15.16
2022-10-25T06:09:31.230Z,15.16
2022-10-25T06:10:32.844Z,15.14
2022-10-25T06:11:35.671Z,15.13
2022-10-25T06:12:38.689Z,15.13
2022-10-25T06:13:41.713Z,15.12
2022-10-25T06:14:43.331Z,15.14
2022-10-25T06:15:46.758Z,15.16
2022-10-25T06:16:49.720Z,15.18
2022-10-25T06:17:51.289Z,15.18
2022-10-25T06:18:54.162Z,15.19
2022-10-25T06:19:55.835Z,15.21
2022-10-25T06:21:02.380Z,15.20
2022-10-25T06:22:05.200Z,15.19
2022-10-25T06:23:09.179Z,15.20
2022-10-25T06:24:13.165Z,15.18
2022-10-25T06:25:14.734Z,15.17
2022-10-25T06:26:19.054Z,15.16
2022-10-25T06:27:20.608Z,15.15
2022-10-25T06:28:24.472Z,15.12
2022-10-25T06:29:26.968Z,15.11
2022-10-25T06:30:28.593Z,15.09
2022-10-25T06:31:31.856Z,15.08
2022-10-25T06:32:33.428Z,15.07
2022-10-25T06:33:36.023Z,15.05
2022-10-25T06:34:38.560Z,15.03
2022-10-25T06:35:40.135Z,15.02
2022-10-25T06:36:42.694Z,15.02
2022-10-25T06:37:44.204Z,15.00
2022-10-25T06:38:49.057Z,15.01
2022-10-25T06:39:50.731Z,14.99
2022-10-25T06:40:53.396Z,14.98
2022-10-25T06:41:55.902Z,14.97
2022-10-25T06:42:57.552Z,14.96
2022-10-25T06:44:06.228Z,14.96
2022-10-25T06:45:09.725Z,14.94
2022-10-25T06:46:15.109Z,14.94
2022-10-25T06:47:18.209Z,14.95
2022-10-25T06:48:20.283Z,14.94
2022-10-25T06:49:22.718Z,14.94
2022-10-25T06:50:24.253Z,14.94
2022-10-25T06:51:29.008Z,14.95
2022-10-25T06:52:30.553Z,14.95
2022-10-25T06:53:33.913Z,14.95
2022-10-25T06:54:35.856Z,14.96
2022-10-25T06:55:38.404Z,14.97
2022-10-25T06:56:40.867Z,14.96
2022-10-25T06:57:43.506Z,14.96
2022-10-25T06:58:45.012Z,14.96
2022-10-25T06:59:48.879Z,14.97
2022-10-25T07:00:50.519Z,14.97
2022-10-25T07:01:55.089Z,14.98
2022-10-25T07:02:58.754Z,14.99
2022-10-25T07:04:02.098Z,14.97
2022-10-25T07:05:05.095Z,14.98
2022-10-25T07:06:09.043Z,14.99
2022-10-25T07:07:14.741Z,14.99
2022-10-25T07:08:16.247Z,14.99
2022-10-25T07:09:18.747Z,15.00
2022-10-25T07:10:20.497Z,15.00
2022-10-25T07:11:24.561Z,15.01
2022-10-25T07:12:27.076Z,15.01
2022-10-25T07:13:31.760Z,15.00
2022-10-25T07:14:34.295Z,15.01
2022-10-25T07:15:39.909Z,15.02
2022-10-25T07:16:44.598Z,15.04
2022-10-25T07:17:46.435Z,15.05
2022-10-25T07:18:49.528Z,15.08
2022-10-25T07:19:52.008Z,15.09
2022-10-25T07:20:58.666Z,15.12
2022-10-25T07:22:01.188Z,15.12
2022-10-25T07:23:05.386Z,15.14
2022-10-25T07:24:11.662Z,15.15
2022-10-25T07:25:14.178Z,15.15
2022-10-25T07:26:18.051Z,15.16
2022-10-25T07:27:22.082Z,15.17
2022-10-25T07:28:23.741Z,15.18
2022-10-25T07:29:26.236Z,15.19
2022-10-25T07:30:27.762Z,15.20
2022-10-25T07:31:33.849Z,15.23
2022-10-25T07:32:40.025Z,15.25
2022-10-25T07:33:44.961Z,15.27
2022-10-25T07:34:46.556Z,15.29
2022-10-25T07:36:06.147Z,15.31
2022-10-25T07:37:12.536Z,15.30
2022-10-25T07:38:14.727Z,15.32
2022-10-25T07:39:17.278Z,15.33
2022-10-25T07:40:19.875Z,15.37
2022-10-25T07:41:22.590Z,15.41
2022-10-25T07:42:24.203Z,15.44
2022-10-25T07:43:27.453Z,15.46
2022-10-25T07:44:30.058Z,15.50
2022-10-25T07:45:31.680Z,15.54
2022-10-25T07:46:35.730Z,15.59
2022-10-25T07:47:37.334Z,15.62
2022-10-25T07:48:39.826Z,15.66
2022-10-25T07:49:42.377Z,15.69
2022-10-25T07:50:46.044Z,15.71
2022-10-25T07:51:48.522Z,15.75
2022-10-25T07:52:50.047Z,15.78
2022-10-25T07:53:53.929Z,15.80
2022-10-25T07:54:56.491Z,15.82
2022-10-25T07:55:58.287Z,15.83
2022-10-25T07:57:01.117Z,15.85
2022-10-25T07:58:04.566Z,15.88
2022-10-25T07:59:07.081Z,15.90
2022-10-25T08:00:11.719Z,15.92
2022-10-25T08:01:19.177Z,15.94
2022-10-25T08:02:26.120Z,15.95
2022-10-25T08:03:27.986Z,15.97
2022-10-25T08:04:32.771Z,15.98
2022-10-25T08:05:34.800Z,15.99
2022-10-25T08:06:37.282Z,16.01
2022-10-25T08:07:38.796Z,16.02
2022-10-25T08:08:41.317Z,16.04
2022-10-25T08:09:42.804Z,16.06
2022-10-25T08:10:45.683Z,16.07
2022-10-25T08:11:48.246Z,16.07
2022-10-25T08:12:49.798Z,16.09
2022-10-25T08:13:52.330Z,16.10
2022-10-25T08:14:53.837Z,16.08
2022-10-25T08:15:57.258Z,16.10
2022-10-25T08:16:59.760Z,16.10
2022-10-25T08:18:04.043Z,16.10
2022-10-25T08:19:06.820Z,16.08
2022-10-25T08:20:09.212Z,16.08
2022-10-25T08:21:11.667Z,16.07
2022-10-25T08:22:13.365Z,16.06
2022-10-25T08:23:16.436Z,16.05
2022-10-25T08:25:24.763Z,16.05
2022-10-25T08:26:34.369Z,16.03
2022-10-25T08:27:40.959Z,16.02
2022-10-25T08:28:49.470Z,16.00
2022-10-25T08:29:50.964Z,16.02
2022-10-25T08:30:54.331Z,16.02
2022-10-25T08:31:55.899Z,16.03
2022-10-25T08:32:58.864Z,16.03
2022-10-25T08:34:02.982Z,16.02
2022-10-25T08:35:06.332Z,16.04
2022-10-25T08:36:09.669Z,16.04
2022-10-25T08:37:12.220Z,16.04
2022-10-25T08:38:14.736Z,16.03
2022-10-25T08:39:17.991Z,16.03
2022-10-25T08:40:24.045Z,16.03
2022-10-25T08:41:36.059Z,16.03
2022-10-25T08:42:50.994Z,16.02
2022-10-25T08:44:09.900Z,16.01
2022-10-25T08:45:20.617Z,16.00
2022-10-25T08:46:27.474Z,16.00
2022-10-25T08:47:35.916Z,15.99
2022-10-25T08:48:44.021Z,16.00
2022-10-25T08:49:55.257Z,15.99
2022-10-25T08:51:01.272Z,15.98
2022-10-25T08:52:06.580Z,15.96
2022-10-25T08:53:16.398Z,15.96
2022-10-25T08:54:23.992Z,15.94
2022-10-25T08:55:32.798Z,15.92
2022-10-25T08:56:42.586Z,15.90
2022-10-25T08:57:55.952Z,15.88
2022-10-25T08:59:00.919Z,15.87
2022-10-25T09:00:07.277Z,15.87
2022-10-25T09:01:14.861Z,15.85
2022-10-25T09:02:24.746Z,15.85
2022-10-25T09:03:28.322Z,15.83
2022-10-25T09:04:31.517Z,15.83
2022-10-25T09:05:39.809Z,15.84
2022-10-25T09:06:48.366Z,15.84
2022-10-25T09:08:07.402Z,15.86
2022-10-25T09:09:23.088Z,15.88
2022-10-25T09:10:48.628Z,15.89
2022-10-25T09:12:06.153Z,15.90
2022-10-25T09:13:16.260Z,15.92
2022-10-25T09:14:29.100Z,15.93
2022-10-25T09:15:45.982Z,15.95
2022-10-25T09:16:50.819Z,15.96
2022-10-25T09:17:55.023Z,15.99
2022-10-25T09:18:58.410Z,16.00
2022-10-25T09:20:05.256Z,16.04
2022-10-25T09:21:22.472Z,16.05
2022-10-25T09:22:27.618Z,16.06
2022-10-25T09:23:31.646Z,16.07
2022-10-25T09:24:43.057Z,16.10
2022-10-25T09:25:52.852Z,16.11
2022-10-25T09:27:04.439Z,16.11
2022-10-25T09:28:12.174Z,16.12
2022-10-25T09:29:22.141Z,16.15
2022-10-25T09:30:24.831Z,16.16
2022-10-25T09:31:26.544Z,16.19
2022-10-25T09:32:35.855Z,16.21
2022-10-25T09:33:43.152Z,16.25
2022-10-25T09:34:46.336Z,16.25
2022-10-25T09:35:51.534Z,16.28
2022-10-25T09:37:00.094Z,16.30
2022-10-25T09:38:09.307Z,16.34
2022-10-25T09:39:18.792Z,16.38
2022-10-25T09:40:26.323Z,16.43
2022-10-25T09:41:34.103Z,16.50
2022-10-25T09:42:40.064Z,16.55
2022-10-25T09:43:50.968Z,16.59
2022-10-25T09:44:57.762Z,16.61
2022-10-25T09:46:04.119Z,16.63
2022-10-25T09:47:18.857Z,16.66
2022-10-25T09:48:28.264Z,16.67
2022-10-25T09:49:37.445Z,16.69
2022-10-25T09:50:47.531Z,16.73
2022-10-25T09:51:59.960Z,16.77
2022-10-25T09:53:11.740Z,16.81
2022-10-25T09:54:17.674Z,16.83
2022-10-25T09:55:32.924Z,16.87
2022-10-25T09:56:35.418Z,16.90
2022-10-25T09:57:38.232Z,16.92
2022-10-25T09:58:42.810Z,16.94
2022-10-25T09:59:48.685Z,16.96
2022-10-25T10:00:52.876Z,16.98
2022-10-25T10:01:54.840Z,17.00
2022-10-25T10:02:57.704Z,17.02
2022-10-25T10:04:16.358Z,17.05
2022-10-25T10:05:20.717Z,17.10
2022-10-25T10:06:26.010Z,17.13
2022-10-25T10:07:34.353Z,17.16
2022-10-25T10:08:36.499Z,17.17
2022-10-25T10:09:45.882Z,17.20
2022-10-25T10:10:50.541Z,17.23
2022-10-25T10:11:54.315Z,17.25
2022-10-25T10:13:01.894Z,17.27
2022-10-25T10:14:11.889Z,17.26
2022-10-25T10:15:20.192Z,17.24
2022-10-25T10:16:26.809Z,17.21
2022-10-25T10:17:30.288Z,17.18
2022-10-25T10:18:35.320Z,17.17
2022-10-25T10:19:36.908Z,17.15
2022-10-25T10:20:39.471Z,17.15
2022-10-25T10:21:45.635Z,17.14
2022-10-25T10:22:52.717Z,17.15
2022-10-25T10:24:05.992Z,17.15
2022-10-25T10:25:16.231Z,17.15
2022-10-25T10:26:32.024Z,17.14
2022-10-25T10:27:34.116Z,17.12
2022-10-25T10:28:37.070Z,17.12
2022-10-25T10:29:54.023Z,17.11
2022-10-25T10:30:59.429Z,17.11
2022-10-25T10:32:05.081Z,17.11
2022-10-25T10:33:09.505Z,17.10
2022-10-25T10:34:34.223Z,17.09
2022-10-25T10:35:38.058Z,17.10
2022-10-25T10:36:39.712Z,17.09
2022-10-25T10:37:42.427Z,17.10
2022-10-25T10:38:45.296Z,17.10
2022-10-25T10:39:53.881Z,17.09
2022-10-25T10:41:13.504Z,17.06
2022-10-25T10:42:17.921Z,17.07
2022-10-25T10:43:30.618Z,17.07
2022-10-25T10:44:34.897Z,17.08
2022-10-25T10:45:37.613Z,17.10
2022-10-25T10:46:44.522Z,17.10
2022-10-25T10:47:56.739Z,17.11
2022-10-25T10:48:59.029Z,17.13
2022-10-25T10:50:02.515Z,17.12
2022-10-25T10:51:09.038Z,17.15
2022-10-25T10:52:30.336Z,17.15
2022-10-25T10:53:33.869Z,17.16
2022-10-25T10:54:47.328Z,17.15
2022-10-25T10:55:52.373Z,17.17
2022-10-25T10:57:01.002Z,17.18
2022-10-25T10:58:06.478Z,17.18
2022-10-25T10:59:30.524Z,17.21
2022-10-25T11:00:34.577Z,17.21
2022-10-25T11:01:37.224Z,17.25
2022-10-25T11:02:41.830Z,17.28
2022-10-25T11:03:59.912Z,17.30
2022-10-25T11:05:03.549Z,17.30
2022-10-25T11:06:07.334Z,17.33
2022-10-25T11:07:14.968Z,17.35
2022-10-25T11:08:19.739Z,17.38
2022-10-25T11:09:26.445Z,17.41
2022-10-25T11:10:33.426Z,17.42
2022-10-25T11:11:34.955Z,17.42
2022-10-25T11:12:41.086Z,17.41
2022-10-25T11:13:51.649Z,17.42
2022-10-25T11:14:55.728Z,17.43
2022-10-25T11:16:25.772Z,17.44
2022-10-25T11:17:36.734Z,17.47
2022-10-25T11:18:48.673Z,17.52
2022-10-25T11:20:03.626Z,17.52
2022-10-25T11:21:16.482Z,17.54
2022-10-25T11:22:32.955Z,17.56
2022-10-25T11:23:48.675Z,17.56
2022-10-25T11:25:02.078Z,17.59
2022-10-25T11:26:16.268Z,17.61
2022-10-25T11:27:33.024Z,17.63
2022-10-25T11:28:48.319Z,17.64
2022-10-25T11:30:04.995Z,17.62
2022-10-25T11:31:16.486Z,17.58
2022-10-25T11:33:49.196Z,17.51
2022-10-25T11:35:00.279Z,17.47
2022-10-25T11:36:31.630Z,17.42
2022-10-25T11:37:42.287Z,17.35
2022-10-25T11:38:59.333Z,17.32
2022-10-25T11:40:11.190Z,17.27
2022-10-25T11:41:27.863Z,17.25
2022-10-25T11:42:44.678Z,17.25
2022-10-25T11:44:02.573Z,17.25
2022-10-25T11:45:33.223Z,17.24
2022-10-25T11:46:44.780Z,17.22
2022-10-25T11:47:57.702Z,17.22
2022-10-25T11:49:16.223Z,17.22
2022-10-25T11:50:26.425Z,17.19
2022-10-25T11:51:38.322Z,17.19
2022-10-25T11:53:03.948Z,17.18
2022-10-25T11:54:16.446Z,17.19
2022-10-25T11:55:28.372Z,17.19
2022-10-25T11:56:40.189Z,17.19
2022-10-25T11:57:50.529Z,17.20
2022-10-25T11:59:04.533Z,17.22
2022-10-25T12:00:15.750Z,17.23
2022-10-25T12:01:45.013Z,17.26
2022-10-25T12:03:12.716Z,17.30
2022-10-25T12:04:35.942Z,17.35
2022-10-25T12:05:47.884Z,17.40
2022-10-25T12:06:54.854Z,17.44
2022-10-25T12:08:09.311Z,17.46
2022-10-25T12:09:20.450Z,17.48
2022-10-25T12:10:29.086Z,17.47
2022-10-25T12:11:37.886Z,17.48
2022-10-25T12:12:45.398Z,17.50
2022-10-25T12:13:51.663Z,17.51
2022-10-25T12:15:01.444Z,17.53
2022-10-25T12:16:10.307Z,17.56
2022-10-25T12:17:19.303Z,17.60
2022-10-25T12:18:26.368Z,17.63
2022-10-25T12:19:31.940Z,17.67
2022-10-25T12:20:37.951Z,17.71
2022-10-25T12:21:45.892Z,17.73
2022-10-25T12:22:50.990Z,17.77
2022-10-25T12:23:55.588Z,17.79
2022-10-25T12:25:00.698Z,17.81
2022-10-25T12:26:10.667Z,17.83
2022-10-25T12:27:17.683Z,17.84
2022-10-25T12:28:26.385Z,17.83
2022-10-25T12:29:35.920Z,17.84
2022-10-25T12:30:42.049Z,17.84
2022-10-25T12:31:49.833Z,17.84
2022-10-25T12:32:56.963Z,17.85
2022-10-25T12:34:03.115Z,17.87
2022-10-25T12:35:08.492Z,17.90
2022-10-25T12:36:24.532Z,17.91
2022-10-25T12:37:35.965Z,17.95
2022-10-25T12:38:40.179Z,17.98
2022-10-25T12:39:43.690Z,17.99
2022-10-25T12:40:49.675Z,18.00
2022-10-25T12:42:00.153Z,18.02
2022-10-25T12:43:14.833Z,18.02
2022-10-25T12:44:34.845Z,18.04
2022-10-25T12:46:01.267Z,18.04
2022-10-25T12:47:19.939Z,18.05
2022-10-25T12:48:45.412Z,18.06
2022-10-25T12:50:14.615Z,18.08
2022-10-25T12:51:29.241Z,18.09
2022-10-25T12:52:37.657Z,18.08
2022-10-25T12:54:08.166Z,18.06
2022-10-25T12:55:37.799Z,18.02
2022-10-25T12:56:54.322Z,18.00
2022-10-25T12:58:10.149Z,18.00
2022-10-25T12:59:32.855Z,17.99
2022-10-25T13:00:42.720Z,17.98
2022-10-25T13:02:01.104Z,18.00
2022-10-25T13:03:37.306Z,18.03
2022-10-25T13:04:54.809Z,18.05
2022-10-25T13:06:14.186Z,18.06
2022-10-25T13:07:17.871Z,18.09
2022-10-25T13:08:23.008Z,18.10
2022-10-25T13:09:32.220Z,18.11
2022-10-25T13:10:44.925Z,18.13
2022-10-25T13:11:49.807Z,18.13
2022-10-25T13:13:01.581Z,18.13
2022-10-25T13:14:13.245Z,18.11
2022-10-25T13:15:20.025Z,18.09
2022-10-25T13:16:26.227Z,18.11
2022-10-25T13:17:48.231Z,18.10
2022-10-25T13:19:35.859Z,18.12
2022-10-25T13:20:47.769Z,18.16
2022-10-25T13:22:22.047Z,18.19
2022-10-25T13:24:02.596Z,18.21
2022-10-25T13:25:06.259Z,18.24
2022-10-25T13:26:10.538Z,18.31
2022-10-25T13:27:22.610Z,18.33
2022-10-25T13:28:33.961Z,18.35
2022-10-25T13:29:49.620Z,18.38
2022-10-25T13:31:44.724Z,18.41
2022-10-25T13:33:27.220Z,18.44
2022-10-25T13:34:34.268Z,18.46
2022-10-25T13:36:05.641Z,18.46
2022-10-25T13:37:40.690Z,18.47
2022-10-25T13:38:43.347Z,18.48
2022-10-25T13:39:45.890Z,18.50
2022-10-25T13:41:06.806Z,18.49
2022-10-25T13:42:20.700Z,18.50
2022-10-25T13:43:23.366Z,18.50
2022-10-25T13:44:26.492Z,18.54
2022-10-25T13:45:42.709Z,18.54
2022-10-25T13:46:46.681Z,18.56
2022-10-25T13:47:51.813Z,18.57
2022-10-25T13:48:54.812Z,18.58
2022-10-25T13:49:57.574Z,18.56
2022-10-25T13:51:01.997Z,18.56
2022-10-25T13:52:07.125Z,18.55
2022-10-25T13:53:23.770Z,18.53
2022-10-25T13:54:32.564Z,18.50
2022-10-25T13:55:38.085Z,18.49
2022-10-25T13:56:51.619Z,18.47
2022-10-25T13:57:56.470Z,18.46
2022-10-25T13:58:59.871Z,18.47
2022-10-25T14:00:03.118Z,18.46
2022-10-25T14:01:53.204Z,18.46
2022-10-25T14:03:35.584Z,18.41
2022-10-25T14:04:40.574Z,18.41
2022-10-25T14:06:15.036Z,18.39
2022-10-25T14:07:46.531Z,18.37
2022-10-25T14:08:56.995Z,18.37
2022-10-25T14:10:00.108Z,18.37
2022-10-25T14:11:08.812Z,18.39
2022-10-25T14:12:19.345Z,18.40
2022-10-25T14:13:29.131Z,18.39
2022-10-25T14:14:36.013Z,18.40
2022-10-25T14:15:48.679Z,18.39
2022-10-25T14:17:09.440Z,18.38
2022-10-25T14:18:18.728Z,18.38
2022-10-25T14:19:23.415Z,18.39
2022-10-25T14:20:30.280Z,18.40
2022-10-25T14:21:32.984Z,18.41
2022-10-25T14:22:37.712Z,18.41